sensor_id;sensor_type;location;lat;lon;timestamp;pressure;altitude;pressure_sealevel;temperature;humidity
72558;BME280;60583;50.094;8.748;2022-12-11T00:00:50;100038.22;;;-1.28;84.98
72558;BME280;60583;50.094;8.748;2022-12-11T00:03:16;100043.03;;;-1.24;84.49
72558;BME280;60583;50.094;8.748;2022-12-11T00:05:42;100051.59;;;-1.12;84.78
72558;BME280;60583;50.094;8.748;2022-12-11T00:08:08;100064.13;;;-1.16;84.27
72558;BME280;60583;50.094;8.748;2022-12-11T00:10:34;100052.66;;;-1.24;84.99
72558;BME280;60583;50.094;8.748;2022-12-11T00:12:59;100061.94;;;-1.11;84.77
72558;BME280;60583;50.094;8.748;2022-12-11T00:15:25;100049.78;;;-1.21;84.70
72558;BME280;60583;50.094;8.748;2022-12-11T00:17:50;100065.09;;;-1.07;84.84
72558;BME280;60583;50.094;8.748;2022-12-11T00:20:15;100061.66;;;-1.08;84.36
72558;BME280;60583;50.094;8.748;2022-12-11T00:22:41;100049.38;;;-1.17;84.64
72558;BME280;60583;50.094;8.748;2022-12-11T00:25:07;100048.13;;;-1.22;85.04
72558;BME280;60583;50.094;8.748;2022-12-11T00:27:33;100056.16;;;-1.05;84.51
72558;BME280;60583;50.094;8.748;2022-12-11T00:29:58;100061.22;;;-1.13;85.33
72558;BME280;60583;50.094;8.748;2022-12-11T00:32:24;100058.91;;;-1.16;84.86
72558;BME280;60583;50.094;8.748;2022-12-11T00:34:49;100064.94;;;-1.15;85.43
72558;BME280;60583;50.094;8.748;2022-12-11T00:37:15;100061.13;;;-1.11;84.45
72558;BME280;60583;50.094;8.748;2022-12-11T00:39:40;100067.31;;;-1.03;84.21
72558;BME280;60583;50.094;8.748;2022-12-11T00:42:06;100058.94;;;-0.97;84.86
72558;BME280;60583;50.094;8.748;2022-12-11T00:44:33;100058.94;;;-1.06;84.59
72558;BME280;60583;50.094;8.748;2022-12-11T00:46:58;100064.56;;;-1.11;84.58
72558;BME280;60583;50.094;8.748;2022-12-11T00:49:24;100070.44;;;-1.18;84.95
72558;BME280;60583;50.094;8.748;2022-12-11T00:51:49;100054.84;;;-1.30;85.60
72558;BME280;60583;50.094;8.748;2022-12-11T00:54:15;100049.16;;;-1.44;85.92
72558;BME280;60583;50.094;8.748;2022-12-11T00:56:40;100050.50;;;-1.50;85.83
72558;BME280;60583;50.094;8.748;2022-12-11T00:59:06;100046.97;;;-1.39;86.06
72558;BME280;60583;50.094;8.748;2022-12-11T01:01:31;100049.19;;;-1.35;85.71
72558;BME280;60583;50.094;8.748;2022-12-11T01:03:57;100056.34;;;-1.37;85.79
72558;BME280;60583;50.094;8.748;2022-12-11T01:06:24;100064.25;;;-1.17;85.07
72558;BME280;60583;50.094;8.748;2022-12-11T01:08:50;100059.63;;;-1.04;84.43
72558;BME280;60583;50.094;8.748;2022-12-11T01:11:34;100056.75;;;-1.01;84.01
72558;BME280;60583;50.094;8.748;2022-12-11T01:14:00;100058.94;;;-1.06;84.62
72558;BME280;60583;50.094;8.748;2022-12-11T01:16:25;100054.38;;;-1.04;84.51
72558;BME280;60583;50.094;8.748;2022-12-11T01:18:51;100054.66;;;-1.07;84.73
72558;BME280;60583;50.094;8.748;2022-12-11T01:21:16;100056.44;;;-1.08;85.01
72558;BME280;60583;50.094;8.748;2022-12-11T01:23:41;100057.69;;;-1.02;84.60
72558;BME280;60583;50.094;8.748;2022-12-11T01:26:12;100064.03;;;-0.95;84.01
72558;BME280;60583;50.094;8.748;2022-12-11T01:28:38;100064.59;;;-1.01;84.07
72558;BME280;60583;50.094;8.748;2022-12-11T01:31:08;100065.97;;;-0.97;84.17
72558;BME280;60583;50.094;8.748;2022-12-11T01:33:34;100065.88;;;-0.86;84.33
72558;BME280;60583;50.094;8.748;2022-12-11T01:36:00;100060.91;;;-0.80;84.48
72558;BME280;60583;50.094;8.748;2022-12-11T01:38:25;100052.38;;;-0.82;83.96
72558;BME280;60583;50.094;8.748;2022-12-11T01:40:51;100048.75;;;-1.00;84.86
72558;BME280;60583;50.094;8.748;2022-12-11T01:43:16;100060.88;;;-0.99;85.39
72558;BME280;60583;50.094;8.748;2022-12-11T01:45:45;100054.31;;;-0.84;84.40
72558;BME280;60583;50.094;8.748;2022-12-11T01:48:17;100055.66;;;-0.89;84.95
72558;BME280;60583;50.094;8.748;2022-12-11T01:50:48;100059.22;;;-1.00;84.17
72558;BME280;60583;50.094;8.748;2022-12-11T01:53:18;100058.38;;;-1.00;84.74
72558;BME280;60583;50.094;8.748;2022-12-11T01:55:46;100064.75;;;-0.93;84.64
72558;BME280;60583;50.094;8.748;2022-12-11T01:58:14;100066.38;;;-1.02;84.04
72558;BME280;60583;50.094;8.748;2022-12-11T02:00:40;100048.72;;;-1.09;84.59
72558;BME280;60583;50.094;8.748;2022-12-11T02:03:06;100060.84;;;-1.08;84.99
72558;BME280;60583;50.094;8.748;2022-12-11T02:05:32;100067.22;;;-1.01;84.51
72558;BME280;60583;50.094;8.748;2022-12-11T02:07:58;100057.03;;;-0.85;83.94
72558;BME280;60583;50.094;8.748;2022-12-11T02:10:38;100045.47;;;-0.92;83.65
72558;BME280;60583;50.094;8.748;2022-12-11T02:13:12;100057.88;;;-0.85;83.95
72558;BME280;60583;50.094;8.748;2022-12-11T02:15:47;100058.69;;;-0.94;84.06
72558;BME280;60583;50.094;8.748;2022-12-11T02:18:48;100053.06;;;-0.89;83.73
72558;BME280;60583;50.094;8.748;2022-12-11T02:21:24;100050.72;;;-0.83;83.82
72558;BME280;60583;50.094;8.748;2022-12-11T02:24:01;100049.91;;;-0.83;84.26
72558;BME280;60583;50.094;8.748;2022-12-11T02:29:35;100044.50;;;-0.91;83.83
72558;BME280;60583;50.094;8.748;2022-12-11T02:32:25;100052.53;;;-0.83;83.75
72558;BME280;60583;50.094;8.748;2022-12-11T02:34:55;100058.72;;;-0.84;84.28
72558;BME280;60583;50.094;8.748;2022-12-11T02:37:23;100065.19;;;-0.88;84.60
72558;BME280;60583;50.094;8.748;2022-12-11T02:39:53;100059.09;;;-0.98;84.88
72558;BME280;60583;50.094;8.748;2022-12-11T02:42:20;100066.56;;;-0.84;84.19
72558;BME280;60583;50.094;8.748;2022-12-11T02:44:49;100064.34;;;-0.98;84.54
72558;BME280;60583;50.094;8.748;2022-12-11T02:47:16;100075.47;;;-0.96;84.58
72558;BME280;60583;50.094;8.748;2022-12-11T02:49:46;100068.06;;;-0.91;84.15
72558;BME280;60583;50.094;8.748;2022-12-11T02:52:16;100072.78;;;-0.76;84.08
72558;BME280;60583;50.094;8.748;2022-12-11T02:54:43;100078.31;;;-0.69;84.10
72558;BME280;60583;50.094;8.748;2022-12-11T02:57:14;100074.59;;;-0.67;84.72
72558;BME280;60583;50.094;8.748;2022-12-11T02:59:43;100073.22;;;-0.61;83.98
72558;BME280;60583;50.094;8.748;2022-12-11T03:02:12;100074.75;;;-0.58;85.05
72558;BME280;60583;50.094;8.748;2022-12-11T03:04:38;100068.94;;;-0.62;85.76
72558;BME280;60583;50.094;8.748;2022-12-11T03:07:11;100061.09;;;-0.62;85.32
72558;BME280;60583;50.094;8.748;2022-12-11T03:09:43;100060.13;;;-0.61;85.92
72558;BME280;60583;50.094;8.748;2022-12-11T03:12:11;100062.34;;;-0.66;86.93
72558;BME280;60583;50.094;8.748;2022-12-11T03:14:39;100061.22;;;-0.73;86.29
72558;BME280;60583;50.094;8.748;2022-12-11T03:17:14;100063.69;;;-0.72;87.10
72558;BME280;60583;50.094;8.748;2022-12-11T03:19:47;100069.94;;;-0.63;86.79
72558;BME280;60583;50.094;8.748;2022-12-11T03:22:19;100065.06;;;-0.68;87.00
72558;BME280;60583;50.094;8.748;2022-12-11T03:24:52;100057.63;;;-0.82;87.33
72558;BME280;60583;50.094;8.748;2022-12-11T03:27:29;100056.53;;;-0.79;87.29
72558;BME280;60583;50.094;8.748;2022-12-11T03:29:59;100058.19;;;-0.78;87.40
72558;BME280;60583;50.094;8.748;2022-12-11T03:32:29;100053.47;;;-0.84;86.98
72558;BME280;60583;50.094;8.748;2022-12-11T03:35:11;100060.09;;;-0.80;86.32
72558;BME280;60583;50.094;8.748;2022-12-11T03:37:39;100059.97;;;-0.79;86.62
72558;BME280;60583;50.094;8.748;2022-12-11T03:40:11;100060.38;;;-0.83;87.21
72558;BME280;60583;50.094;8.748;2022-12-11T03:42:39;100062.84;;;-0.82;87.13
72558;BME280;60583;50.094;8.748;2022-12-11T03:45:07;100055.53;;;-0.88;87.66
72558;BME280;60583;50.094;8.748;2022-12-11T03:47:33;100057.03;;;-0.85;87.05
72558;BME280;60583;50.094;8.748;2022-12-11T03:50:00;100059.28;;;-0.71;87.31
72558;BME280;60583;50.094;8.748;2022-12-11T03:52:28;100053.25;;;-0.62;86.33
72558;BME280;60583;50.094;8.748;2022-12-11T03:54:56;100051.72;;;-0.65;87.13
72558;BME280;60583;50.094;8.748;2022-12-11T03:57:27;100052.13;;;-0.59;86.66
72558;BME280;60583;50.094;8.748;2022-12-11T03:59:53;100060.94;;;-0.70;86.08
72558;BME280;60583;50.094;8.748;2022-12-11T04:02:19;100038.72;;;-0.95;86.58
72558;BME280;60583;50.094;8.748;2022-12-11T04:04:44;100053.44;;;-1.03;87.64
72558;BME280;60583;50.094;8.748;2022-12-11T04:07:10;100047.78;;;-1.08;87.69
72558;BME280;60583;50.094;8.748;2022-12-11T04:09:35;100054.38;;;-1.04;87.63
72558;BME280;60583;50.094;8.748;2022-12-11T04:12:00;100057.25;;;-1.07;87.92
72558;BME280;60583;50.094;8.748;2022-12-11T04:14:26;100055.75;;;-1.00;87.60
72558;BME280;60583;50.094;8.748;2022-12-11T04:17:10;100053.75;;;-0.87;86.29
72558;BME280;60583;50.094;8.748;2022-12-11T04:19:35;100059.53;;;-0.93;86.81
72558;BME280;60583;50.094;8.748;2022-12-11T04:22:19;100048.97;;;-1.12;87.82
72558;BME280;60583;50.094;8.748;2022-12-11T04:24:51;100050.09;;;-1.05;87.76
72558;BME280;60583;50.094;8.748;2022-12-11T04:27:17;100052.38;;;-0.91;87.64
72558;BME280;60583;50.094;8.748;2022-12-11T04:30:05;100039.31;;;-0.82;87.13
72558;BME280;60583;50.094;8.748;2022-12-11T04:32:33;100048.94;;;-0.82;87.67
72558;BME280;60583;50.094;8.748;2022-12-11T04:34:58;100049.59;;;-0.99;87.41
72558;BME280;60583;50.094;8.748;2022-12-11T04:37:24;100053.75;;;-0.87;88.06
72558;BME280;60583;50.094;8.748;2022-12-11T04:39:49;100050.69;;;-0.92;87.62
72558;BME280;60583;50.094;8.748;2022-12-11T04:42:14;100053.63;;;-0.86;88.16
72558;BME280;60583;50.094;8.748;2022-12-11T04:44:40;100041.75;;;-0.90;88.36
72558;BME280;60583;50.094;8.748;2022-12-11T04:47:06;100046.16;;;-0.90;87.91
72558;BME280;60583;50.094;8.748;2022-12-11T04:49:31;100046.97;;;-0.99;88.98
72558;BME280;60583;50.094;8.748;2022-12-11T04:51:56;100052.03;;;-1.07;89.38
72558;BME280;60583;50.094;8.748;2022-12-11T04:54:22;100046.13;;;-1.09;89.51
72558;BME280;60583;50.094;8.748;2022-12-11T04:56:47;100044.19;;;-1.07;88.55
72558;BME280;60583;50.094;8.748;2022-12-11T04:59:12;100040.88;;;-1.09;88.58
72558;BME280;60583;50.094;8.748;2022-12-11T05:01:38;100044.63;;;-1.02;88.47
72558;BME280;60583;50.094;8.748;2022-12-11T05:04:03;100045.72;;;-0.95;88.19
72558;BME280;60583;50.094;8.748;2022-12-11T05:06:29;100040.63;;;-0.97;88.83
72558;BME280;60583;50.094;8.748;2022-12-11T05:08:54;100047.13;;;-0.91;88.72
72558;BME280;60583;50.094;8.748;2022-12-11T05:11:19;100053.22;;;-0.81;88.48
72558;BME280;60583;50.094;8.748;2022-12-11T05:13:45;100047.41;;;-0.75;87.89
72558;BME280;60583;50.094;8.748;2022-12-11T05:16:13;100038.44;;;-0.92;88.31
72558;BME280;60583;50.094;8.748;2022-12-11T05:18:39;100035.00;;;-0.92;88.96
72558;BME280;60583;50.094;8.748;2022-12-11T05:21:06;100024.84;;;-0.86;88.55
72558;BME280;60583;50.094;8.748;2022-12-11T05:23:32;100023.88;;;-0.85;88.15
72558;BME280;60583;50.094;8.748;2022-12-11T05:26:01;100020.41;;;-0.95;88.29
72558;BME280;60583;50.094;8.748;2022-12-11T05:28:29;100022.31;;;-0.97;88.47
72558;BME280;60583;50.094;8.748;2022-12-11T05:30:56;100025.34;;;-1.01;88.97
72558;BME280;60583;50.094;8.748;2022-12-11T05:33:22;100028.13;;;-0.93;88.45
72558;BME280;60583;50.094;8.748;2022-12-11T05:35:48;100023.41;;;-0.99;88.38
72558;BME280;60583;50.094;8.748;2022-12-11T05:38:13;100027.28;;;-1.03;88.30
72558;BME280;60583;50.094;8.748;2022-12-11T05:40:39;100032.50;;;-1.03;89.12
72558;BME280;60583;50.094;8.748;2022-12-11T05:43:04;100029.75;;;-1.02;89.25
72558;BME280;60583;50.094;8.748;2022-12-11T05:45:29;100029.91;;;-1.03;89.48
72558;BME280;60583;50.094;8.748;2022-12-11T05:47:55;100019.28;;;-1.02;89.03
72558;BME280;60583;50.094;8.748;2022-12-11T05:50:20;100033.50;;;-0.85;88.90
72558;BME280;60583;50.094;8.748;2022-12-11T05:52:45;100025.38;;;-0.82;88.02
72558;BME280;60583;50.094;8.748;2022-12-11T05:55:11;100019.72;;;-0.87;88.85
72558;BME280;60583;50.094;8.748;2022-12-11T05:57:36;100022.06;;;-0.84;88.11
72558;BME280;60583;50.094;8.748;2022-12-11T06:00:03;100010.63;;;-0.93;87.50
72558;BME280;60583;50.094;8.748;2022-12-11T06:02:29;100018.94;;;-0.78;87.86
72558;BME280;60583;50.094;8.748;2022-12-11T06:04:54;100012.88;;;-0.69;87.66
72558;BME280;60583;50.094;8.748;2022-12-11T06:07:20;100007.22;;;-0.74;88.26
72558;BME280;60583;50.094;8.748;2022-12-11T06:09:45;100001.31;;;-0.76;88.04
72558;BME280;60583;50.094;8.748;2022-12-11T06:12:10;100007.38;;;-0.66;87.61
72558;BME280;60583;50.094;8.748;2022-12-11T06:14:36;100003.91;;;-0.67;87.58
72558;BME280;60583;50.094;8.748;2022-12-11T06:17:01;100003.13;;;-0.48;87.85
72558;BME280;60583;50.094;8.748;2022-12-11T06:19:27;100012.06;;;-0.50;87.52
72558;BME280;60583;50.094;8.748;2022-12-11T06:21:52;99995.38;;;-0.40;86.43
72558;BME280;60583;50.094;8.748;2022-12-11T06:24:17;100007.66;;;-0.40;86.89
72558;BME280;60583;50.094;8.748;2022-12-11T06:26:43;100010.66;;;-0.45;86.84
72558;BME280;60583;50.094;8.748;2022-12-11T06:29:08;100009.97;;;-0.37;86.21
72558;BME280;60583;50.094;8.748;2022-12-11T06:31:34;100013.28;;;-0.54;86.64
72558;BME280;60583;50.094;8.748;2022-12-11T06:33:59;100009.84;;;-0.55;86.78
72558;BME280;60583;50.094;8.748;2022-12-11T06:36:24;100003.91;;;-0.57;86.86
72558;BME280;60583;50.094;8.748;2022-12-11T06:38:51;100011.91;;;-0.39;86.63
72558;BME280;60583;50.094;8.748;2022-12-11T06:41:16;100007.50;;;-0.39;86.13
72558;BME280;60583;50.094;8.748;2022-12-11T06:43:42;100000.63;;;-0.30;86.62
72558;BME280;60583;50.094;8.748;2022-12-11T06:46:09;99999.91;;;-0.32;86.07
72558;BME280;60583;50.094;8.748;2022-12-11T06:48:36;99998.53;;;-0.27;86.15
72558;BME280;60583;50.094;8.748;2022-12-11T06:51:09;100000.91;;;-0.33;85.89
72558;BME280;60583;50.094;8.748;2022-12-11T06:53:35;100001.03;;;-0.35;86.79
72558;BME280;60583;50.094;8.748;2022-12-11T06:56:05;99997.31;;;-0.42;86.93
72558;BME280;60583;50.094;8.748;2022-12-11T06:58:33;100003.38;;;-0.51;87.42
72558;BME280;60583;50.094;8.748;2022-12-11T07:00:58;100002.56;;;-0.61;87.63
72558;BME280;60583;50.094;8.748;2022-12-11T07:03:24;100003.66;;;-0.54;87.88
72558;BME280;60583;50.094;8.748;2022-12-11T07:05:49;99999.38;;;-0.55;86.48
72558;BME280;60583;50.094;8.748;2022-12-11T07:08:15;100007.78;;;-0.61;87.40
72558;BME280;60583;50.094;8.748;2022-12-11T07:10:40;99997.31;;;-0.61;87.59
72558;BME280;60583;50.094;8.748;2022-12-11T07:13:06;100010.41;;;-0.51;87.30
72558;BME280;60583;50.094;8.748;2022-12-11T07:15:31;100008.06;;;-0.45;86.74
72558;BME280;60583;50.094;8.748;2022-12-11T07:17:56;100007.78;;;-0.61;88.21
72558;BME280;60583;50.094;8.748;2022-12-11T07:20:22;100001.44;;;-0.49;88.33
72558;BME280;60583;50.094;8.748;2022-12-11T07:22:48;100004.75;;;-0.66;88.44
72558;BME280;60583;50.094;8.748;2022-12-11T07:25:13;100008.59;;;-0.70;89.63
72558;BME280;60583;50.094;8.748;2022-12-11T07:27:39;100000.63;;;-0.78;88.19
72558;BME280;60583;50.094;8.748;2022-12-11T07:30:06;100008.06;;;-0.64;88.30
72558;BME280;60583;50.094;8.748;2022-12-11T07:32:32;100013.59;;;-0.48;88.12
72558;BME280;60583;50.094;8.748;2022-12-11T07:34:57;100008.19;;;-0.46;87.86
72558;BME280;60583;50.094;8.748;2022-12-11T07:37:23;100012.22;;;-0.33;87.86
72558;BME280;60583;50.094;8.748;2022-12-11T07:39:49;100017.44;;;-0.33;87.27
72558;BME280;60583;50.094;8.748;2022-12-11T07:42:14;100015.63;;;-0.32;87.35
72558;BME280;60583;50.094;8.748;2022-12-11T07:44:40;100020.47;;;-0.28;86.89
72558;BME280;60583;50.094;8.748;2022-12-11T07:47:05;100021.16;;;-0.26;86.79
72558;BME280;60583;50.094;8.748;2022-12-11T07:49:30;100018.13;;;-0.31;86.88
72558;BME280;60583;50.094;8.748;2022-12-11T07:51:56;100016.72;;;-0.35;86.32
72558;BME280;60583;50.094;8.748;2022-12-11T07:54:21;100022.94;;;-0.36;86.36
72558;BME280;60583;50.094;8.748;2022-12-11T07:56:47;100028.59;;;-0.31;86.89
72558;BME280;60583;50.094;8.748;2022-12-11T07:59:13;100029.44;;;-0.30;86.75
72558;BME280;60583;50.094;8.748;2022-12-11T08:01:39;100027.63;;;-0.11;85.87
72558;BME280;60583;50.094;8.748;2022-12-11T08:04:07;100041.94;;;-0.15;86.32
72558;BME280;60583;50.094;8.748;2022-12-11T08:06:35;100032.31;;;-0.24;86.64
72558;BME280;60583;50.094;8.748;2022-12-11T08:09:06;100029.81;;;-0.35;87.87
72558;BME280;60583;50.094;8.748;2022-12-11T08:11:32;100042.50;;;-0.40;88.10
72558;BME280;60583;50.094;8.748;2022-12-11T08:13:58;100037.56;;;-0.33;87.63
72558;BME280;60583;50.094;8.748;2022-12-11T08:16:24;100027.78;;;-0.31;87.09
72558;BME280;60583;50.094;8.748;2022-12-11T08:18:50;100032.03;;;-0.21;87.05
72558;BME280;60583;50.094;8.748;2022-12-11T08:21:21;100029.56;;;-0.13;86.24
72558;BME280;60583;50.094;8.748;2022-12-11T08:23:48;100021.97;;;-0.16;87.39
72558;BME280;60583;50.094;8.748;2022-12-11T08:26:16;100020.03;;;-0.14;86.71
72558;BME280;60583;50.094;8.748;2022-12-11T08:28:42;100025.41;;;-0.06;86.97
72558;BME280;60583;50.094;8.748;2022-12-11T08:31:09;100022.13;;;-0.08;86.78
72558;BME280;60583;50.094;8.748;2022-12-11T08:33:36;100018.50;;;-0.07;86.28
72558;BME280;60583;50.094;8.748;2022-12-11T08:36:06;100021.78;;;0.05;86.37
72558;BME280;60583;50.094;8.748;2022-12-11T08:38:33;100029.38;;;0.08;85.99
72558;BME280;60583;50.094;8.748;2022-12-11T08:41:06;100013.25;;;0.03;86.71
72558;BME280;60583;50.094;8.748;2022-12-11T08:43:32;100016.97;;;0.00;86.73
72558;BME280;60583;50.094;8.748;2022-12-11T08:45:58;100011.19;;;0.07;87.29
72558;BME280;60583;50.094;8.748;2022-12-11T08:48:23;100016.84;;;0.02;86.76
72558;BME280;60583;50.094;8.748;2022-12-11T08:50:48;100028.72;;;-0.04;87.47
72558;BME280;60583;50.094;8.748;2022-12-11T08:53:14;100032.00;;;-0.02;86.70
72558;BME280;60583;50.094;8.748;2022-12-11T08:55:39;100029.84;;;-0.25;87.36
72558;BME280;60583;50.094;8.748;2022-12-11T08:58:04;100028.03;;;-0.25;88.06
72558;BME280;60583;50.094;8.748;2022-12-11T09:00:30;100029.00;;;-0.26;87.42
72558;BME280;60583;50.094;8.748;2022-12-11T09:02:55;100028.84;;;-0.15;87.61
72558;BME280;60583;50.094;8.748;2022-12-11T09:05:20;100026.53;;;-0.08;87.19
72558;BME280;60583;50.094;8.748;2022-12-11T09:07:46;100031.47;;;-0.15;86.86
72558;BME280;60583;50.094;8.748;2022-12-11T09:10:11;100031.59;;;-0.07;87.23
72558;BME280;60583;50.094;8.748;2022-12-11T09:12:37;100024.03;;;-0.10;87.31
72558;BME280;60583;50.094;8.748;2022-12-11T09:15:03;100015.88;;;-0.07;86.47
72558;BME280;60583;50.094;8.748;2022-12-11T09:17:29;100021.53;;;-0.02;86.90
72558;BME280;60583;50.094;8.748;2022-12-11T09:19:54;100024.72;;;0.02;86.27
72558;BME280;60583;50.094;8.748;2022-12-11T09:22:19;100025.66;;;0.01;86.05
72558;BME280;60583;50.094;8.748;2022-12-11T09:24:45;100016.84;;;0.02;86.82
72558;BME280;60583;50.094;8.748;2022-12-11T09:27:11;100017.66;;;0.03;86.66
72558;BME280;60583;50.094;8.748;2022-12-11T09:29:38;100028.69;;;0.06;86.40
72558;BME280;60583;50.094;8.748;2022-12-11T09:32:03;100024.16;;;-0.02;86.70
72558;BME280;60583;50.094;8.748;2022-12-11T09:34:30;100024.03;;;-0.10;86.95
72558;BME280;60583;50.094;8.748;2022-12-11T09:36:55;100032.28;;;-0.05;87.31
72558;BME280;60583;50.094;8.748;2022-12-11T09:39:21;100029.28;;;0.00;86.02
72558;BME280;60583;50.094;8.748;2022-12-11T09:45:00;100016.28;;;-0.02;87.34
72558;BME280;60583;50.094;8.748;2022-12-11T09:47:32;100014.75;;;0.06;86.81
72558;BME280;60583;50.094;8.748;2022-12-11T09:50:14;100019.03;;;0.07;86.02
72558;BME280;60583;50.094;8.748;2022-12-11T09:53:10;100016.00;;;0.11;85.97
72558;BME280;60583;50.094;8.748;2022-12-11T10:03:56;100007.44;;;0.19;86.87
72558;BME280;60583;50.094;8.748;2022-12-11T10:06:32;100014.75;;;0.06;87.04
72558;BME280;60583;50.094;8.748;2022-12-11T10:11:34;100009.81;;;-0.07;87.27
72558;BME280;60583;50.094;8.748;2022-12-11T10:14:25;100006.09;;;-0.14;88.51
72558;BME280;60583;50.094;8.748;2022-12-11T10:16:59;100010.25;;;-0.12;88.04
72558;BME280;60583;50.094;8.748;2022-12-11T10:19:30;100014.53;;;-0.11;88.61
72558;BME280;60583;50.094;8.748;2022-12-11T10:21:56;100010.50;;;-0.15;87.61
72558;BME280;60583;50.094;8.748;2022-12-11T10:24:44;100012.75;;;-0.10;87.87
72558;BME280;60583;50.094;8.748;2022-12-11T10:27:17;100012.19;;;-0.23;88.33
72558;BME280;60583;50.094;8.748;2022-12-11T10:29:46;100016.59;;;-0.24;88.36
72558;BME280;60583;50.094;8.748;2022-12-11T10:32:23;100008.88;;;-0.16;87.67
72558;BME280;60583;50.094;8.748;2022-12-11T10:34:58;99998.25;;;-0.24;88.54
72558;BME280;60583;50.094;8.748;2022-12-11T10:37:26;100005.97;;;-0.22;88.75
72558;BME280;60583;50.094;8.748;2022-12-11T10:39:51;100007.09;;;-0.15;87.78
72558;BME280;60583;50.094;8.748;2022-12-11T10:42:19;100004.47;;;-0.25;87.77
72558;BME280;60583;50.094;8.748;2022-12-11T10:45:00;100001.28;;;-0.19;87.60
72558;BME280;60583;50.094;8.748;2022-12-11T10:47:27;99998.41;;;-0.16;87.94
72558;BME280;60583;50.094;8.748;2022-12-11T10:49:57;99984.50;;;-0.35;88.55
72558;BME280;60583;50.094;8.748;2022-12-11T10:52:24;99989.88;;;-0.18;89.55
72558;BME280;60583;50.094;8.748;2022-12-11T10:57:54;99982.69;;;-0.16;87.94
72558;BME280;60583;50.094;8.748;2022-12-11T11:02:53;99973.28;;;-0.09;88.36
72558;BME280;60583;50.094;8.748;2022-12-11T11:05:48;99972.94;;;0.14;87.47
72558;BME280;60583;50.094;8.748;2022-12-11T11:08:19;99964.41;;;0.12;87.99
72558;BME280;60583;50.094;8.748;2022-12-11T11:10:58;99967.41;;;0.26;87.65
72558;BME280;60583;50.094;8.748;2022-12-11T11:13:28;99972.94;;;0.14;87.55
72558;BME280;60583;50.094;8.748;2022-12-11T11:16:02;99968.56;;;0.05;88.33
72558;BME280;60583;50.094;8.748;2022-12-11T11:18:29;99967.59;;;0.06;88.01
72558;BME280;60583;50.094;8.748;2022-12-11T11:20:56;99964.88;;;-0.03;87.94
72558;BME280;60583;50.094;8.748;2022-12-11T11:23:23;99963.34;;;0.05;87.98
72558;BME280;60583;50.094;8.748;2022-12-11T11:25:55;99959.47;;;-0.01;88.01
72558;BME280;60583;50.094;8.748;2022-12-11T11:28:26;99953.97;;;0.02;87.25
72558;BME280;60583;50.094;8.748;2022-12-11T11:30:59;99951.47;;;0.00;86.78
72558;BME280;60583;50.094;8.748;2022-12-11T11:33:26;99948.00;;;0.10;85.84
72558;BME280;60583;50.094;8.748;2022-12-11T11:35:58;99948.94;;;0.18;86.36
72558;BME280;60583;50.094;8.748;2022-12-11T11:38:30;99942.84;;;0.18;84.92
72558;BME280;60583;50.094;8.748;2022-12-11T11:41:00;99945.47;;;0.18;84.40
72558;BME280;60583;50.094;8.748;2022-12-11T11:46:27;99940.94;;;0.20;85.16
72558;BME280;60583;50.094;8.748;2022-12-11T11:49:16;99944.84;;;0.06;85.36
72558;BME280;60583;50.094;8.748;2022-12-11T11:51:58;99938.75;;;0.06;84.91
72558;BME280;60583;50.094;8.748;2022-12-11T11:54:38;99941.91;;;0.19;85.04
72558;BME280;60583;50.094;8.748;2022-12-11T11:57:19;99938.59;;;0.17;84.56
72558;BME280;60583;50.094;8.748;2022-12-11T11:59:53;99935.97;;;0.17;84.72
72558;BME280;60583;50.094;8.748;2022-12-11T12:02:20;99931.56;;;0.17;83.88
72558;BME280;60583;50.094;8.748;2022-12-11T12:04:46;99937.34;;;0.21;84.80
72558;BME280;60583;50.094;8.748;2022-12-11T12:10:45;99935.09;;;0.26;82.92
72558;BME280;60583;50.094;8.748;2022-12-11T12:16:17;99930.13;;;0.32;83.48
72558;BME280;60583;50.094;8.748;2022-12-11T12:19:11;99924.84;;;0.42;82.92
72558;BME280;60583;50.094;8.748;2022-12-11T12:21:42;99925.84;;;0.31;84.49
72558;BME280;60583;50.094;8.748;2022-12-11T12:24:17;99926.25;;;0.36;83.74
72558;BME280;60583;50.094;8.748;2022-12-11T12:27:16;99924.34;;;0.29;83.40
72558;BME280;60583;50.094;8.748;2022-12-11T12:29:51;99925.22;;;0.20;83.62
72558;BME280;60583;50.094;8.748;2022-12-11T12:32:38;99919.97;;;0.20;84.04
72558;BME280;60583;50.094;8.748;2022-12-11T12:35:35;99927.53;;;0.23;83.74
72558;BME280;60583;50.094;8.748;2022-12-11T12:38:14;99929.75;;;0.27;83.56
72558;BME280;60583;50.094;8.748;2022-12-11T12:41:14;99926.84;;;0.21;84.30
72558;BME280;60583;50.094;8.748;2022-12-11T12:43:48;99920.25;;;0.17;83.88
72558;BME280;60583;50.094;8.748;2022-12-11T12:48:51;99921.75;;;0.19;84.62
72558;BME280;60583;50.094;8.748;2022-12-11T12:51:18;99928.91;;;0.27;83.74
72558;BME280;60583;50.094;8.748;2022-12-11T12:53:51;99925.16;;;0.29;83.22
72558;BME280;60583;50.094;8.748;2022-12-11T12:56:19;99924.72;;;0.34;83.20
72558;BME280;60583;50.094;8.748;2022-12-11T12:58:46;99913.84;;;0.29;83.18
72558;BME280;60583;50.094;8.748;2022-12-11T13:06:42;99913.75;;;0.21;82.49
72558;BME280;60583;50.094;8.748;2022-12-11T13:09:34;99923.78;;;0.25;81.72
72558;BME280;60583;50.094;8.748;2022-12-11T13:12:13;99916.97;;;0.42;82.45
72558;BME280;60583;50.094;8.748;2022-12-11T13:14:39;99914.56;;;0.48;81.91
72558;BME280;60583;50.094;8.748;2022-12-11T13:19:45;99912.13;;;0.47;82.12
72558;BME280;60583;50.094;8.748;2022-12-11T13:27:37;99917.19;;;0.48;81.65
72558;BME280;60583;50.094;8.748;2022-12-11T13:30:24;99917.34;;;0.47;83.25
72558;BME280;60583;50.094;8.748;2022-12-11T13:32:59;99917.06;;;0.50;83.68
72558;BME280;60583;50.094;8.748;2022-12-11T13:35:26;99916.75;;;0.53;83.20
72558;BME280;60583;50.094;8.748;2022-12-11T13:37:52;99905.50;;;0.43;83.90
72558;BME280;60583;50.094;8.748;2022-12-11T13:40:27;99920.38;;;0.52;84.33
72558;BME280;60583;50.094;8.748;2022-12-11T13:43:03;99916.75;;;0.53;83.38
72558;BME280;60583;50.094;8.748;2022-12-11T13:45:46;99920.59;;;0.58;83.72
72558;BME280;60583;50.094;8.748;2022-12-11T13:48:21;99918.72;;;0.51;84.21
72558;BME280;60583;50.094;8.748;2022-12-11T13:50:49;99924.94;;;0.50;84.01
72558;BME280;60583;50.094;8.748;2022-12-11T13:53:17;99920.09;;;0.55;83.10